Time;durP1;ratioP1;P1;durP2;ratioP2;P2;SDS_P1;SDS_P2;PMS_P1;PMS_P2;Temp;Humidity;BMP_temperature;BMP_pressure;BME280_temperature;BME280_humidity;BME280_pressure;Samples;Min_cycle;Max_cycle;Signal;HPM_P1;HPM_P2
2023/05/06 00:00:52;;;;;;;7.83;4.37;;;15.50;99.90;;;;;;5019626;28;20030;-72
2023/05/06 00:03:18;;;;;;;8.90;4.03;;;15.50;99.90;;;;;;5013001;28;20022;-72
2023/05/06 00:05:45;;;;;;;6.53;4.30;;;15.40;99.90;;;;;;5014605;28;20038;-72
2023/05/06 00:08:10;;;;;;;;;;;15.40;99.90;;;;;;5013276;28;20025;-72
2023/05/06 00:10:36;;;;;;;6.00;3.70;;;15.30;99.90;;;;;;5011513;28;19917;-71
2023/05/06 00:13:02;;;;;;;7.32;3.75;;;15.20;99.90;;;;;;5019132;28;20026;-71
2023/05/06 00:15:28;;;;;;;7.05;4.10;;;15.10;99.90;;;;;;5012347;28;20030;-72
2023/05/06 00:17:54;;;;;;;9.97;3.77;;;15.20;99.90;;;;;;5017883;28;20040;-73
2023/05/06 00:20:20;;;;;;;7.70;3.92;;;15.30;99.90;;;;;;5021967;28;20037;-72
2023/05/06 00:22:46;;;;;;;5.43;3.88;;;15.10;99.90;;;;;;5005953;28;20053;-71
2023/05/06 00:25:11;;;;;;;7.18;4.18;;;15.20;99.90;;;;;;5017403;28;20080;-71
2023/05/06 00:27:37;;;;;;;5.63;3.93;;;15.20;99.90;;;;;;5004255;28;20593;-72
2023/05/06 00:30:04;;;;;;;5.90;3.72;;;15.20;99.90;;;;;;5021354;28;20485;-72
2023/05/06 00:32:30;;;;;;;5.60;3.92;;;15.10;99.90;;;;;;5011804;28;20071;-71
2023/05/06 00:34:55;;;;;;;5.87;3.77;;;15.10;99.90;;;;;;5022610;28;20060;-71
2023/05/06 00:37:21;;;;;;;9.47;3.87;;;15.10;99.90;;;;;;5009271;28;20474;-72
2023/05/06 00:39:47;;;;;;;7.27;4.20;;;15.00;99.90;;;;;;5012941;28;20103;-71
2023/05/06 00:42:12;;;;;;;6.68;4.15;;;14.90;99.90;;;;;;5012665;28;20470;-71
2023/05/06 00:44:38;;;;;;;5.97;3.83;;;14.90;99.90;;;;;;5011215;28;20112;-73
2023/05/06 00:47:04;;;;;;;7.63;4.40;;;15.00;99.90;;;;;;5017306;28;20053;-72
2023/05/06 00:49:30;;;;;;;6.35;4.35;;;14.90;99.90;;;;;;5010719;28;20448;-73
2023/05/06 00:51:57;;;;;;;5.93;4.38;;;14.80;99.90;;;;;;5011844;28;20057;-73
2023/05/06 00:54:26;;;;;;;6.40;3.75;;;14.80;99.90;;;;;;5011254;28;20096;-71
2023/05/06 00:56:53;;;;;;;5.35;3.83;;;14.80;99.90;;;;;;5014415;28;20030;-71
2023/05/06 00:59:18;;;;;;;;;;;14.70;99.90;;;;;;5016565;28;20045;-72
2023/05/06 01:01:44;;;;;;;6.63;4.05;;;14.70;99.90;;;;;;5009296;28;19997;-71
2023/05/06 01:04:11;;;;;;;7.83;4.07;;;14.70;99.90;;;;;;5013549;28;20065;-71
2023/05/06 01:06:40;;;;;;;;;;;14.60;99.90;;;;;;5014754;28;20108;-70
2023/05/06 01:09:19;;;;;;;9.10;4.20;;;14.60;99.90;;;;;;5012191;28;19906;-72
2023/05/06 01:12:01;;;;;;;4.63;4.15;;;14.60;99.90;;;;;;5012657;28;20034;-71
2023/05/06 01:14:47;;;;;;;9.57;4.32;;;14.30;99.90;;;;;;5011958;28;20768;-71
2023/05/06 01:17:17;;;;;;;4.82;4.07;;;14.40;99.90;;;;;;5004940;28;20034;-72
2023/05/06 01:19:47;;;;;;;5.22;4.10;;;14.50;99.90;;;;;;5013668;28;20513;-74
2023/05/06 01:22:14;;;;;;;8.88;3.90;;;14.60;99.90;;;;;;5011254;28;20060;-71
2023/05/06 01:24:41;;;;;;;;;;;14.60;99.90;;;;;;5013999;28;20041;-72
2023/05/06 01:27:07;;;;;;;5.38;4.10;;;14.60;99.90;;;;;;5023007;28;19993;-72
2023/05/06 01:29:36;;;;;;;5.57;4.00;;;14.30;99.90;;;;;;5025537;28;20033;-71
2023/05/06 01:32:25;;;;;;;6.55;4.40;;;14.30;99.90;;;;;;5014882;28;20030;-71
2023/05/06 01:35:18;;;;;;;9.52;3.70;;;14.30;99.90;;;;;;5017456;28;20030;-70
2023/05/06 01:37:51;;;;;;;5.68;3.70;;;14.40;99.90;;;;;;5010534;28;20539;-72
2023/05/06 01:40:18;;;;;;;5.60;3.55;;;14.30;99.90;;;;;;5013879;28;20564;-70
2023/05/06 01:42:50;;;;;;;6.78;4.03;;;14.30;99.90;;;;;;5011320;28;20545;-70
2023/05/06 01:45:17;;;;;;;7.63;4.07;;;14.40;99.90;;;;;;5012218;28;20385;-73
2023/05/06 01:47:45;;;;;;;5.57;3.92;;;14.40;99.90;;;;;;5010675;28;20037;-71
2023/05/06 01:50:11;;;;;;;8.55;4.82;;;14.30;99.90;;;;;;5017687;28;20046;-72
2023/05/06 01:52:37;;;;;;;9.55;3.97;;;14.40;99.90;;;;;;5010496;28;20060;-73
2023/05/06 01:55:03;;;;;;;6.03;4.43;;;14.30;99.90;;;;;;5012476;28;20406;-71
2023/05/06 01:57:29;;;;;;;7.85;4.25;;;14.10;99.90;;;;;;5007430;28;20627;-72
2023/05/06 01:59:54;;;;;;;5.53;4.13;;;14.10;99.90;;;;;;5014712;28;20045;-71
2023/05/06 02:02:20;;;;;;;9.10;5.27;;;14.00;99.90;;;;;;5010019;28;20033;-73
2023/05/06 02:04:46;;;;;;;5.73;4.00;;;14.10;99.90;;;;;;5015265;28;20037;-72
2023/05/06 02:07:11;;;;;;;7.20;4.90;;;13.90;99.90;;;;;;5008856;28;20394;-73
2023/05/06 02:09:37;;;;;;;7.77;5.23;;;13.80;99.90;;;;;;5011560;28;20526;-70
2023/05/06 02:12:03;;;;;;;7.10;4.20;;;13.70;99.90;;;;;;5013401;28;20120;-71
2023/05/06 02:14:28;;;;;;;6.27;3.93;;;13.70;99.90;;;;;;5010509;28;20025;-72
2023/05/06 02:16:54;;;;;;;10.83;5.17;;;13.70;99.90;;;;;;5010243;28;20084;-70
2023/05/06 02:19:20;;;;;;;5.85;4.40;;;13.60;99.90;;;;;;5011639;28;20041;-70
2023/05/06 02:21:45;;;;;;;7.47;4.22;;;13.70;99.90;;;;;;5013161;28;20215;-72
2023/05/06 02:24:11;;;;;;;10.37;4.70;;;13.70;99.90;;;;;;5011739;28;20036;-73
2023/05/06 02:26:36;;;;;;;8.90;5.00;;;13.80;99.90;;;;;;5012041;28;20033;-70
2023/05/06 02:29:02;;;;;;;8.13;4.77;;;13.70;99.90;;;;;;5011964;28;20037;-72
2023/05/06 02:31:29;;;;;;;7.47;4.30;;;13.70;99.90;;;;;;5010114;28;20037;-69
2023/05/06 02:33:54;;;;;;;10.10;4.78;;;13.60;99.90;;;;;;5009892;28;20072;-71
2023/05/06 02:36:20;;;;;;;5.53;3.97;;;13.70;99.90;;;;;;5009391;28;20074;-71
2023/05/06 02:38:46;;;;;;;8.87;4.67;;;13.60;99.90;;;;;;5006748;28;20502;-73
2023/05/06 02:41:11;;;;;;;6.20;4.47;;;13.50;99.90;;;;;;5009548;28;20481;-70
2023/05/06 02:43:37;;;;;;;10.63;4.53;;;13.50;99.90;;;;;;5008238;28;20332;-70
2023/05/06 02:46:02;;;;;;;5.97;4.60;;;13.50;99.90;;;;;;5013439;28;20029;-71
2023/05/06 02:48:29;;;;;;;7.27;4.67;;;13.40;99.90;;;;;;5006877;28;20033;-72
2023/05/06 02:50:54;;;;;;;6.97;4.80;;;13.40;99.90;;;;;;5009179;28;20061;-71
2023/05/06 02:53:20;;;;;;;7.07;4.90;;;13.40;99.90;;;;;;5009632;28;20107;-72
2023/05/06 02:55:45;;;;;;;4.93;4.13;;;13.30;99.90;;;;;;5008336;28;20101;-72
2023/05/06 02:58:11;;;;;;;7.50;4.40;;;13.30;99.90;;;;;;5006746;28;20125;-72
2023/05/06 03:00:36;;;;;;;11.60;5.57;;;13.30;99.90;;;;;;5011383;28;20026;-72
2023/05/06 03:03:02;;;;;;;7.60;4.90;;;13.30;99.90;;;;;;5011333;28;20037;-71
2023/05/06 03:05:28;;;;;;;9.70;6.18;;;13.20;99.90;;;;;;5011344;28;20034;-73
2023/05/06 03:07:54;;;;;;;7.90;5.30;;;13.30;99.90;;;;;;5014152;28;20033;-74
2023/05/06 03:10:19;;;;;;;7.43;5.03;;;13.20;99.90;;;;;;5011102;28;20090;-74
2023/05/06 03:12:45;;;;;;;9.00;5.07;;;13.30;99.90;;;;;;5014775;28;20029;-72
2023/05/06 03:15:10;;;;;;;6.03;4.90;;;13.10;99.90;;;;;;5019428;28;20093;-73
2023/05/06 03:17:36;;;;;;;10.10;5.17;;;13.20;99.90;;;;;;5023359;28;20112;-71
2023/05/06 03:20:02;;;;;;;7.50;4.97;;;13.20;99.90;;;;;;5018294;28;20038;-69
2023/05/06 03:22:28;;;;;;;7.75;4.63;;;13.10;99.90;;;;;;5009512;28;20088;-72
2023/05/06 03:24:53;;;;;;;7.33;5.17;;;13.10;99.90;;;;;;5004127;28;20525;-70
2023/05/06 03:27:19;;;;;;;7.47;5.17;;;13.10;99.90;;;;;;5013584;28;20022;-72
2023/05/06 03:29:45;;;;;;;7.57;5.10;;;13.00;99.90;;;;;;5005932;28;20417;-72
2023/05/06 03:32:10;;;;;;;6.93;5.20;;;13.10;99.90;;;;;;5006181;28;20528;-74
2023/05/06 03:34:36;;;;;;;6.57;5.10;;;13.00;99.90;;;;;;5010707;28;20113;-70
2023/05/06 03:37:01;;;;;;;7.13;5.33;;;13.10;99.90;;;;;;5006422;28;20021;-73
2023/05/06 03:39:27;;;;;;;7.43;5.43;;;13.10;99.90;;;;;;5007347;28;20049;-72
2023/05/06 03:41:52;;;;;;;7.73;5.47;;;13.00;99.90;;;;;;5006499;28;20085;-73
2023/05/06 03:44:18;;;;;;;9.30;5.17;;;13.00;99.90;;;;;;5015116;28;20462;-70
2023/05/06 03:46:44;;;;;;;8.87;5.20;;;13.00;99.90;;;;;;5008448;28;20101;-71
2023/05/06 03:49:09;;;;;;;8.67;4.63;;;12.90;99.90;;;;;;5007764;28;20029;-70
2023/05/06 03:51:35;;;;;;;6.10;4.87;;;13.00;99.90;;;;;;5010823;28;20110;-72
2023/05/06 03:54:00;;;;;;;8.70;5.13;;;13.00;99.90;;;;;;5014083;28;20104;-71
2023/05/06 03:56:26;;;;;;;7.70;5.27;;;12.90;99.90;;;;;;5012758;28;20045;-71
2023/05/06 03:58:53;;;;;;;8.60;5.53;;;12.80;99.90;;;;;;5012002;28;20038;-71
2023/05/06 04:01:19;;;;;;;8.10;5.65;;;12.80;99.90;;;;;;5011947;28;20544;-70
2023/05/06 04:03:46;;;;;;;6.75;5.75;;;12.80;99.90;;;;;;5009364;28;20067;-70
2023/05/06 04:06:11;;;;;;;11.17;6.10;;;12.70;99.90;;;;;;5014375;28;20461;-70
2023/05/06 04:08:37;;;;;;;8.90;5.63;;;12.70;99.90;;;;;;5013550;28;20040;-73
2023/05/06 04:11:04;;;;;;;9.97;5.83;;;12.70;99.90;;;;;;5010622;28;20288;-73
2023/05/06 04:13:30;;;;;;;6.00;5.28;;;12.60;99.90;;;;;;5010555;28;20041;-73
2023/05/06 04:15:56;;;;;;;8.65;5.35;;;12.60;99.90;;;;;;5008696;28;20055;-70
2023/05/06 04:18:22;;;;;;;12.40;5.93;;;12.60;99.90;;;;;;5006919;28;20861;-69
2023/05/06 04:20:48;;;;;;;6.78;5.45;;;12.60;99.90;;;;;;5016627;28;20038;-72
2023/05/06 04:23:14;;;;;;;9.07;5.75;;;12.40;99.90;;;;;;5012137;28;20085;-70
2023/05/06 04:25:41;;;;;;;6.75;5.15;;;12.40;99.90;;;;;;5010853;28;20108;-69
2023/05/06 04:28:13;;;;;;;8.23;5.85;;;12.60;99.90;;;;;;5016651;28;20045;-70
2023/05/06 04:30:39;;;;;;;9.93;5.95;;;12.60;99.90;;;;;;5012332;28;20398;-71
2023/05/06 04:33:06;;;;;;;7.38;5.53;;;12.60;99.90;;;;;;5011751;28;20025;-71
2023/05/06 04:35:32;;;;;;;8.40;5.70;;;12.60;99.90;;;;;;5011624;28;20036;-72
2023/05/06 04:37:58;;;;;;;9.95;5.95;;;12.60;99.90;;;;;;5011387;28;20484;-70
2023/05/06 04:40:26;;;;;;;12.10;5.70;;;12.50;99.90;;;;;;5018370;28;20042;-71
2023/05/06 04:42:52;;;;;;;6.38;4.82;;;12.50;99.90;;;;;;5014224;28;20156;-72
2023/05/06 04:45:18;;;;;;;10.10;5.30;;;12.60;99.90;;;;;;5027001;28;20037;-70
2023/05/06 04:47:44;;;;;;;8.60;5.15;;;12.60;99.90;;;;;;5014875;28;20026;-70
2023/05/06 04:50:10;;;;;;;7.40;5.32;;;12.60;99.90;;;;;;5014633;28;20046;-71
2023/05/06 04:52:36;;;;;;;7.95;5.60;;;12.70;99.90;;;;;;5015286;28;20025;-70
2023/05/06 04:55:02;;;;;;;9.75;5.53;;;12.70;99.90;;;;;;5013762;28;20491;-71
2023/05/06 04:57:29;;;;;;;9.43;6.07;;;12.70;99.90;;;;;;5013034;28;20073;-71
2023/05/06 04:59:55;;;;;;;8.68;5.40;;;12.60;99.90;;;;;;5011550;28;20528;-71
2023/05/06 05:02:21;;;;;;;9.67;5.90;;;12.80;99.90;;;;;;5007842;28;20061;-72
2023/05/06 05:04:46;;;;;;;11.23;5.77;;;12.70;99.90;;;;;;5016383;28;20045;-73
2023/05/06 05:07:12;;;;;;;14.57;5.77;;;13.00;99.90;;;;;;5034077;28;20030;-74
2023/05/06 05:09:37;;;;;;;7.97;5.90;;;13.00;99.90;;;;;;5020548;28;20498;-69
2023/05/06 05:12:03;;;;;;;8.33;6.13;;;14.00;99.90;;;;;;5011009;28;20520;-70
2023/05/06 05:14:29;;;;;;;5.70;4.97;;;14.70;99.90;;;;;;5011241;28;20076;-69
2023/05/06 05:16:55;;;;;;;8.10;5.03;;;15.50;99.90;;;;;;5009440;28;20109;-70
2023/05/06 05:19:20;;;;;;;10.33;5.40;;;15.90;99.90;;;;;;5012555;28;20386;-70
2023/05/06 05:21:47;;;;;;;6.60;5.40;;;16.40;99.90;;;;;;5012456;28;20017;-70
2023/05/06 05:24:13;;;;;;;6.47;4.90;;;16.20;99.90;;;;;;5016049;28;20386;-72
2023/05/06 05:26:38;;;;;;;9.27;4.73;;;16.50;99.90;;;;;;5009393;28;20042;-70
2023/05/06 05:29:05;;;;;;;7.53;4.97;;;15.70;99.90;;;;;;5011706;28;20041;-72
2023/05/06 05:31:30;;;;;;;6.90;5.35;;;15.00;99.90;;;;;;5010491;28;20034;-70
2023/05/06 05:33:56;;;;;;;13.70;5.53;;;14.70;99.90;;;;;;5009707;28;20571;-71
2023/05/06 05:36:22;;;;;;;6.40;5.17;;;14.70;99.90;;;;;;5012949;28;20022;-70
2023/05/06 05:38:48;;;;;;;6.63;5.32;;;16.20;99.90;;;;;;5012145;28;20604;-71
2023/05/06 05:41:14;;;;;;;9.95;5.05;;;17.40;99.90;;;;;;5012770;28;20033;-70
2023/05/06 05:43:40;;;;;;;6.47;4.53;;;18.10;99.90;;;;;;5009079;28;20030;-70
2023/05/06 05:46:06;;;;;;;6.63;4.97;;;18.40;99.90;;;;;;5011591;28;20591;-70
2023/05/06 05:48:32;;;;;;;4.97;4.03;;;18.10;99.90;;;;;;5014951;28;20434;-71
2023/05/06 05:51:00;;;;;;;5.18;4.63;;;18.50;99.90;;;;;;5009642;28;20038;-71
2023/05/06 05:53:25;;;;;;;5.85;4.18;;;19.00;99.90;;;;;;5008304;28;20030;-70
2023/05/06 05:55:51;;;;;;;9.00;4.50;;;17.70;99.90;;;;;;5012527;28;20025;-71
2023/05/06 05:58:16;;;;;;;11.03;4.47;;;17.60;99.90;;;;;;5014877;28;20033;-70
2023/05/06 06:00:42;;;;;;;7.20;4.30;;;17.40;99.90;;;;;;5009584;28;20048;-70
2023/05/06 06:03:08;;;;;;;8.90;5.37;;;18.60;99.90;;;;;;5004696;28;20025;-70
2023/05/06 06:05:33;;;;;;;8.27;4.97;;;17.80;99.90;;;;;;5008132;28;20041;-71
2023/05/06 06:07:59;;;;;;;8.77;4.90;;;17.50;99.90;;;;;;5010823;28;20029;-69
2023/05/06 06:10:24;;;;;;;12.60;4.83;;;18.00;99.90;;;;;;5007584;28;20033;-70
2023/05/06 06:12:50;;;;;;;5.67;4.93;;;18.40;99.90;;;;;;5007177;28;20042;-71
2023/05/06 06:15:16;;;;;;;10.50;5.10;;;17.40;99.90;;;;;;5009185;28;20557;-71
2023/05/06 06:17:42;;;;;;;9.50;5.53;;;16.90;99.90;;;;;;5006937;28;20075;-71
2023/05/06 06:20:08;;;;;;;6.93;5.05;;;16.80;99.90;;;;;;5007239;28;20502;-70
2023/05/06 06:22:34;;;;;;;8.98;5.35;;;16.90;99.90;;;;;;5010795;28;20045;-71
2023/05/06 06:24:59;;;;;;;9.33;5.17;;;17.50;99.90;;;;;;5009574;28;20037;-71
2023/05/06 06:27:25;;;;;;;8.50;4.87;;;17.60;99.90;;;;;;5007428;28;20445;-71
2023/05/06 06:29:51;;;;;;;6.23;4.50;;;17.00;99.90;;;;;;5015627;28;20032;-71
2023/05/06 06:32:16;;;;;;;9.43;4.70;;;17.50;99.90;;;;;;5007107;28;20022;-70
2023/05/06 06:34:42;;;;;;;8.77;4.40;;;17.70;99.90;;;;;;5010213;28;20026;-70
2023/05/06 06:37:11;;;;;;;7.63;4.23;;;17.90;99.90;;;;;;5006221;28;20741;-70
2023/05/06 06:39:37;;;;;;;10.20;5.18;;;18.10;99.90;;;;;;5011467;28;20076;-71
2023/05/06 06:42:03;;;;;;;8.70;4.82;;;19.20;99.90;;;;;;5007881;28;20034;-71
2023/05/06 06:44:29;;;;;;;7.57;4.80;;;19.10;99.90;;;;;;5010766;28;20041;-71
2023/05/06 06:46:55;;;;;;;;;;;19.50;99.90;;;;;;5014694;28;20453;-69
2023/05/06 06:49:20;;;;;;;8.35;5.00;;;19.60;99.90;;;;;;5002881;28;19920;-72
2023/05/06 06:51:46;;;;;;;6.87;4.87;;;19.40;99.90;;;;;;5008415;28;20026;-70
2023/05/06 06:54:12;;;;;;;11.57;5.80;;;19.70;99.90;;;;;;5018255;28;20037;-70
2023/05/06 06:56:37;;;;;;;8.43;5.15;;;19.40;99.90;;;;;;5039355;28;20029;-70
2023/05/06 06:59:03;;;;;;;11.20;4.60;;;19.60;99.90;;;;;;5017860;28;20050;-72
2023/05/06 07:01:29;;;;;;;11.30;5.33;;;19.30;99.90;;;;;;5002154;28;20057;-72
2023/05/06 07:03:54;;;;;;;9.03;5.10;;;19.50;99.90;;;;;;5006955;28;20776;-70
2023/05/06 07:06:20;;;;;;;8.07;4.32;;;19.60;99.90;;;;;;5010778;28;20048;-71
2023/05/06 07:08:46;;;;;;;6.30;5.00;;;19.50;99.90;;;;;;5007164;28;20045;-70
2023/05/06 07:11:13;;;;;;;7.67;4.30;;;19.20;99.90;;;;;;4959606;28;20424;-69
2023/05/06 07:13:39;;;;;;;10.45;4.45;;;19.50;99.90;;;;;;4972843;28;20030;-71
2023/05/06 07:16:05;;;;;;;6.47;4.18;;;19.90;99.90;;;;;;4948369;28;20118;-72
2023/05/06 07:18:30;;;;;;;12.55;3.80;;;20.00;99.90;;;;;;4949885;28;20587;-71
2023/05/06 07:20:56;;;;;;;4.88;3.28;;;20.30;99.90;;;;;;4955330;28;20031;-71
2023/05/06 07:23:22;;;;;;;10.43;3.20;;;20.30;99.90;;;;;;4954759;28;20614;-71
2023/05/06 07:25:47;;;;;;;5.77;3.10;;;20.40;99.90;;;;;;4950783;28;20102;-71
2023/05/06 07:28:14;;;;;;;4.47;3.03;;;20.20;99.90;;;;;;4948403;28;20055;-70
2023/05/06 07:30:40;;;;;;;4.50;2.72;;;20.30;99.90;;;;;;4945249;28;20093;-72
2023/05/06 07:33:06;;;;;;;4.70;2.88;;;20.10;99.90;;;;;;4946024;28;20016;-71
2023/05/06 07:35:31;;;;;;;2.78;2.40;;;19.90;99.90;;;;;;4949568;28;20038;-72
2023/05/06 07:37:57;;;;;;;5.82;2.85;;;20.20;99.90;;;;;;4951143;28;20055;-72
2023/05/06 07:40:23;;;;;;;6.17;3.10;;;20.20;99.90;;;;;;4952255;28;20054;-72
2023/05/06 07:42:48;;;;;;;5.18;3.47;;;20.30;99.90;;;;;;4951984;28;20038;-72
2023/05/06 07:45:14;;;;;;;6.90;4.13;;;19.90;99.90;;;;;;4950237;28;20043;-71
2023/05/06 07:47:40;;;;;;;11.60;3.20;;;19.90;99.90;;;;;;4949648;28;20287;-70
2023/05/06 07:50:06;;;;;;;5.50;3.27;;;20.10;99.90;;;;;;4953421;28;20043;-72
2023/05/06 07:52:32;;;;;;;7.25;3.60;;;20.30;99.90;;;;;;4951362;28;20327;-73
2023/05/06 07:54:58;;;;;;;6.63;2.90;;;20.40;99.90;;;;;;4945169;28;20075;-72
2023/05/06 07:57:23;;;;;;;5.45;3.90;;;20.80;99.90;;;;;;4954536;28;20065;-73
2023/05/06 07:59:51;;;;;;;6.23;3.97;;;20.50;99.70;;;;;;4948211;28;20039;-73
2023/05/06 08:02:17;;;;;;;5.82;3.00;;;20.80;99.80;;;;;;4957776;28;20278;-72
2023/05/06 08:04:44;;;;;;;7.43;3.40;;;20.50;99.90;;;;;;4950656;28;20039;-73
2023/05/06 08:07:10;;;;;;;5.53;2.85;;;20.80;99.40;;;;;;4949940;28;20036;-72
2023/05/06 08:09:36;;;;;;;5.68;2.97;;;20.60;99.70;;;;;;4947905;28;20051;-72
2023/05/06 08:12:02;;;;;;;5.63;3.20;;;20.70;99.40;;;;;;4950446;28;20045;-72
2023/05/06 08:14:28;;;;;;;5.15;2.65;;;21.10;99.10;;;;;;4947089;28;20400;-72
2023/05/06 08:16:54;;;;;;;7.27;2.50;;;21.60;97.90;;;;;;4949801;28;20031;-71
2023/05/06 08:19:20;;;;;;;4.95;2.05;;;21.90;97.40;;;;;;4948388;28;21035;-71
2023/05/06 08:21:47;;;;;;;3.40;2.00;;;21.60;96.50;;;;;;4951813;28;20546;-71
2023/05/06 08:24:13;;;;;;;5.25;2.35;;;21.70;97.30;;;;;;4949346;28;20407;-71
2023/05/06 08:26:39;;;;;;;5.38;2.30;;;22.50;96.00;;;;;;4949930;28;20063;-72
2023/05/06 08:29:06;;;;;;;3.78;2.38;;;22.50;94.80;;;;;;4953085;28;20553;-72
2023/05/06 08:31:31;;;;;;;5.18;2.67;;;22.20;95.10;;;;;;4946256;28;20046;-72
2023/05/06 08:33:57;;;;;;;10.60;3.17;;;23.40;93.60;;;;;;4951671;28;20110;-72
2023/05/06 08:36:22;;;;;;;4.47;2.93;;;22.70;93.30;;;;;;4950197;28;20028;-71
2023/05/06 08:38:49;;;;;;;6.77;2.20;;;23.50;94.20;;;;;;4975936;28;20051;-73
2023/05/06 08:41:22;;;;;;;8.02;3.10;;;25.80;90.60;;;;;;4976867;28;20270;-73
2023/05/06 08:43:49;;;;;;;6.05;2.13;;;26.10;86.60;;;;;;4963155;28;20480;-72
2023/05/06 08:46:16;;;;;;;6.45;3.30;;;26.40;83.70;;;;;;4953055;28;20391;-72
2023/05/06 08:48:42;;;;;;;8.25;3.97;;;26.60;83.60;;;;;;4951207;28;20492;-70
2023/05/06 08:51:12;;;;;;;9.48;2.90;;;25.70;83.20;;;;;;4950146;28;20043;-72
2023/05/06 08:53:41;;;;;;;5.00;3.53;;;26.00;83.10;;;;;;4950119;28;20421;-71
2023/05/06 08:56:07;;;;;;;2.95;2.67;;;25.40;85.30;;;;;;4951287;28;20038;-73
2023/05/06 08:58:34;;;;;;;6.63;3.67;;;26.30;83.00;;;;;;4947954;28;20062;-72
2023/05/06 09:01:01;;;;;;;4.57;3.05;;;26.10;82.90;;;;;;4949953;28;20567;-71
2023/05/06 09:03:27;;;;;;;3.95;3.03;;;24.70;85.60;;;;;;4949443;28;20043;-71
2023/05/06 09:05:53;;;;;;;7.32;2.75;;;25.90;84.60;;;;;;4945424;28;20029;-71
2023/05/06 09:08:19;;;;;;;5.30;3.03;;;26.90;78.80;;;;;;4946722;28;20071;-72
2023/05/06 09:10:45;;;;;;;5.72;2.67;;;26.10;81.90;;;;;;4964640;28;20038;-71
2023/05/06 09:13:11;;;;;;;;;;;25.70;83.60;;;;;;4952307;28;20066;-71
2023/05/06 09:15:41;;;;;;;3.15;2.63;;;27.80;77.70;;;;;;4949954;28;20473;-71
2023/05/06 09:18:08;;;;;;;4.13;3.03;;;29.10;73.30;;;;;;4950373;28;20034;-74
2023/05/06 09:20:34;;;;;;;4.15;2.67;;;30.80;72.80;;;;;;4950181;28;20054;-73
2023/05/06 09:23:01;;;;;;;3.88;2.75;;;31.10;68.60;;;;;;4949618;28;20058;-72
2023/05/06 09:25:28;;;;;;;5.90;2.58;;;29.40;70.00;;;;;;4951145;28;20492;-70
2023/05/06 09:28:11;;;;;;;5.28;2.92;;;30.30;70.80;;;;;;4951701;28;20038;-73
2023/05/06 09:30:45;;;;;;;6.57;2.90;;;31.00;68.90;;;;;;4951416;29;20035;-72
2023/05/06 09:33:11;;;;;;;4.90;2.55;;;31.50;67.50;;;;;;4951224;28;20035;-72
2023/05/06 09:35:39;;;;;;;8.35;2.30;;;32.30;65.40;;;;;;4952895;28;20110;-73
2023/05/06 09:38:06;;;;;;;33.15;5.63;;;31.60;64.70;;;;;;4945461;28;20038;-74
2023/05/06 09:40:32;;;;;;;39.20;5.55;;;31.20;66.00;;;;;;4956992;28;20082;-75
2023/05/06 09:42:58;;;;;;;;;;;33.10;67.00;;;;;;4955208;28;20093;-74
2023/05/06 09:45:23;;;;;;;12.27;3.00;;;34.20;61.70;;;;;;4947990;28;19914;-75
2023/05/06 09:47:52;;;;;;;;;;;34.60;61.30;;;;;;4951376;28;20808;-76
2023/05/06 09:50:19;;;;;;;7.70;3.15;;;34.60;59.20;;;;;;4954034;28;20115;-74
2023/05/06 09:52:47;;;;;;;4.25;2.10;;;34.90;59.20;;;;;;4943337;28;20035;-71
2023/05/06 09:55:13;;;;;;;6.25;2.40;;;34.40;58.10;;;;;;4950306;28;20154;-72
2023/05/06 09:57:40;;;;;;;37.13;10.15;;;34.40;58.70;;;;;;4952184;28;20094;-77
2023/05/06 10:00:08;;;;;;;59.25;14.23;;;35.00;57.50;;;;;;4948235;29;20203;-75
2023/05/06 10:02:34;;;;;;;136.40;33.33;;;36.20;57.40;;;;;;4950301;28;20030;-75
2023/05/06 10:05:04;;;;;;;29.90;9.32;;;35.90;57.50;;;;;;4949632;28;20031;-76
2023/05/06 10:07:31;;;;;;;2.60;2.28;;;35.60;56.30;;;;;;4949397;28;20109;-76
2023/05/06 10:09:58;;;;;;;52.15;14.43;;;35.10;57.60;;;;;;4953018;28;20059;-78
2023/05/06 10:12:25;;;;;;;94.90;26.10;;;35.00;56.80;;;;;;4954885;28;20024;-76
2023/05/06 10:14:50;;;;;;;71.57;20.83;;;35.90;57.10;;;;;;4952523;28;20046;-77
2023/05/06 10:17:17;;;;;;;68.28;20.80;;;36.70;57.00;;;;;;4952300;28;20095;-79
2023/05/06 10:19:45;;;;;;;13.88;4.63;;;36.60;55.70;;;;;;4951653;28;20043;-78
2023/05/06 10:22:40;;;;;;;23.60;8.77;;;36.30;55.10;;;;;;4959974;28;20055;-75
2023/05/06 10:25:38;;;;;;;7.63;2.78;;;36.20;55.00;;;;;;4976123;28;20062;-75
2023/05/06 10:28:05;;;;;;;13.50;4.65;;;35.50;55.30;;;;;;4954306;28;20118;-77
2023/05/06 10:30:33;;;;;;;4.35;2.20;;;34.50;55.30;;;;;;4957758;28;20041;-74
2023/05/06 10:33:03;;;;;;;5.78;2.78;;;35.50;56.50;;;;;;4953162;28;20047;-79
2023/05/06 10:35:56;;;;;;;25.02;8.95;;;35.00;55.50;;;;;;4951481;28;20029;-77
2023/05/06 10:38:41;;;;;;;6.85;2.42;;;35.30;55.30;;;;;;4950073;28;20518;-78
2023/05/06 10:41:08;;;;;;;7.43;2.63;;;31.40;57.50;;;;;;4959508;28;20530;-81
2023/05/06 10:43:38;;;;;;;16.90;6.80;;;29.60;62.80;;;;;;4952840;28;20043;-80
2023/05/06 10:46:07;;;;;;;11.98;4.70;;;28.80;62.30;;;;;;4954555;28;20399;-75
2023/05/06 10:48:34;;;;;;;8.98;3.53;;;28.90;65.50;;;;;;4957805;28;20042;-79
2023/05/06 10:51:15;;;;;;;14.90;4.72;;;29.00;65.50;;;;;;4951827;28;20027;-76
2023/05/06 10:54:02;;;;;;;7.50;2.70;;;28.50;66.10;;;;;;4951880;28;20410;-84
2023/05/06 10:56:49;;;;;;;9.18;3.50;;;28.00;68.60;;;;;;4952961;28;20073;-81
2023/05/06 10:59:20;;;;;;;8.10;2.42;;;28.50;68.80;;;;;;4956050;28;20042;-81
2023/05/06 11:01:54;;;;;;;10.27;4.63;;;27.40;66.30;;;;;;4947895;28;20031;-75
2023/05/06 11:04:20;;;;;;;5.88;2.70;;;28.20;68.70;;;;;;4949794;28;20438;-78
2023/05/06 11:06:48;;;;;;;11.00;3.75;;;27.30;66.30;;;;;;4950763;28;20031;-76
2023/05/06 11:09:19;;;;;;;6.45;2.78;;;27.10;68.60;;;;;;4951052;28;20376;-77
2023/05/06 11:11:49;;;;;;;6.25;2.60;;;26.90;69.10;;;;;;4946183;28;20038;-74
2023/05/06 11:14:26;;;;;;;9.63;3.85;;;26.20;70.40;;;;;;4949475;28;20572;-77
2023/05/06 11:16:53;;;;;;;10.07;3.80;;;26.60;71.20;;;;;;4948205;28;20073;-73
2023/05/06 11:19:30;;;;;;;4.10;2.63;;;27.50;73.40;;;;;;4950577;28;20043;-77
2023/05/06 11:21:57;;;;;;;5.72;2.45;;;27.40;69.30;;;;;;4951601;28;20027;-80
2023/05/06 11:24:40;;;;;;;5.90;3.13;;;26.90;67.80;;;;;;4947133;28;20036;-77
2023/05/06 11:27:08;;;;;;;11.88;3.60;;;26.80;71.60;;;;;;4946086;28;20038;-79
2023/05/06 11:29:33;;;;;;;4.68;2.85;;;27.10;68.80;;;;;;4948995;28;20062;-80
2023/05/06 11:32:00;;;;;;;5.78;2.50;;;27.70;69.50;;;;;;4947760;28;20104;-76
2023/05/06 11:34:34;;;;;;;4.32;2.22;;;27.40;69.30;;;;;;4951836;28;20720;-73
2023/05/06 11:37:06;;;;;;;7.13;2.78;;;27.70;71.40;;;;;;4945358;28;20113;-73
2023/05/06 11:39:33;;;;;;;3.85;2.38;;;27.80;69.70;;;;;;4949215;28;20027;-78
2023/05/06 11:42:04;;;;;;;5.32;2.58;;;27.70;71.90;;;;;;4951525;28;20077;-73
2023/05/06 11:44:32;;;;;;;3.15;2.33;;;27.70;69.40;;;;;;4949739;28;20491;-75
2023/05/06 11:47:06;;;;;;;3.97;2.40;;;27.80;68.30;;;;;;4953789;28;20023;-77
2023/05/06 11:49:37;;;;;;;4.40;2.42;;;27.70;70.10;;;;;;4950210;28;20150;-79
2023/05/06 11:52:03;;;;;;;2.40;1.90;;;27.90;72.80;;;;;;4950960;28;20023;-77
2023/05/06 11:54:34;;;;;;;8.45;2.88;;;27.10;70.50;;;;;;4950923;28;20043;-75
2023/05/06 11:56:59;;;;;;;3.53;2.22;;;26.70;72.40;;;;;;4948219;28;20404;-71
2023/05/06 11:59:29;;;;;;;3.90;2.00;;;27.40;79.50;;;;;;4949121;28;20047;-71
2023/05/06 12:01:56;;;;;;;7.57;2.63;;;27.60;74.70;;;;;;4955383;28;20534;-75
2023/05/06 12:04:21;;;;;;;4.43;2.33;;;27.90;73.10;;;;;;4948851;28;20027;-72
2023/05/06 12:06:47;;;;;;;4.55;2.30;;;27.90;70.10;;;;;;4949034;28;20031;-73
2023/05/06 12:09:13;;;;;;;7.00;2.08;;;28.10;70.90;;;;;;4950997;28;20511;-72
2023/05/06 12:11:40;;;;;;;2.67;1.95;;;28.00;70.00;;;;;;4952704;28;20030;-77
2023/05/06 12:14:08;;;;;;;3.20;1.85;;;27.80;71.30;;;;;;4971666;28;20020;-73
2023/05/06 12:16:35;;;;;;;3.53;2.38;;;28.00;71.00;;;;;;4972529;28;20028;-71
2023/05/06 12:19:01;;;;;;;3.70;2.15;;;27.70;69.80;;;;;;4963274;28;20050;-72
2023/05/06 12:21:28;;;;;;;3.65;2.00;;;27.70;71.30;;;;;;4955046;28;20374;-73
2023/05/06 12:23:58;;;;;;;2.92;1.98;;;27.80;73.60;;;;;;4955101;28;20097;-76
2023/05/06 12:26:29;;;;;;;2.65;1.92;;;27.70;72.30;;;;;;4955285;28;20527;-73
2023/05/06 12:29:12;;;;;;;3.58;2.20;;;27.70;70.50;;;;;;4951250;28;20102;-76
2023/05/06 12:31:38;;;;;;;4.50;2.35;;;27.60;73.20;;;;;;4952605;28;20027;-74
2023/05/06 12:34:04;;;;;;;4.53;2.55;;;27.90;73.80;;;;;;4953647;28;20042;-72
2023/05/06 12:36:31;;;;;;;;;;;27.80;70.40;;;;;;4956496;28;20094;-75
2023/05/06 12:38:59;;;;;;;4.03;2.38;;;27.60;74.50;;;;;;4954499;28;19914;-73
2023/05/06 12:41:44;;;;;;;6.53;2.65;;;27.80;73.00;;;;;;4952223;28;20107;-75
2023/05/06 12:44:35;;;;;;;4.97;2.85;;;27.90;72.70;;;;;;4955812;28;20027;-75
2023/05/06 12:47:17;;;;;;;3.17;2.30;;;27.80;72.80;;;;;;4951904;28;20039;-74
2023/05/06 12:49:54;;;;;;;2.55;1.90;;;27.50;69.60;;;;;;4952198;28;20023;-72